METAR Data
IDs: Format: Raw Decoded Include TAF

Data at: 2206 UTC 10 May 2021

KAPA 102153Z 16012KT 10SM -RA SCT028 OVC037 07/03 A3000 RMK AO2 RAE2055B04E21B46 SLP157 P0001 T00670028
KAPA 102102Z 17014KT 10SM FEW014 BKN033 OVC075 07/03 A3001 RMK AO2 RAE2055 P0000 T00670033
KAPA 102053Z 17013KT 10SM -RA BKN014 BKN032 OVC055 07/03 A3001 RMK AO2 SLP160 P0003 60014 T00670033 50004
KAPA 101953Z 16006KT 10SM -RA BKN014 BKN037 OVC050 05/02 A3003 RMK AO2 SLP165 P0008 T00500022
KAPA 101941Z 15010KT 10SM -RA BKN014 BKN034 OVC050 04/02 A3002 RMK AO2 P0008 T00440017
KAPA 101853Z 31009KT 3SM RA BR BKN022 OVC027 05/03 A3003 RMK AO2 RAE02B23 SLP170 P0003 T00500028
KAPA 101753Z 16015G22KT 10SM -RA BKN025 OVC070 06/02 A3000 RMK AO2 RAB15 SLP155 P0002 60002 T00610017 10072 20033 58013
KAPA 101729Z 16010KT 7SM -RA BKN023 OVC033 06/01 A3002 RMK AO2 RAB15 P0001 T00610011
KAPA 101653Z 17015KT 10SM OVC034 07/01 A3003 RMK AO2 SLP164 T00670006
KAPA 101553Z 18012KT 10SM BKN026 OVC033 07/01 A3003 RMK AO2 SLP165 T00670011
KAPA 101453Z 20011KT 10SM SCT017 BKN027 OVC032 06/01 A3004 RMK AO2 SLP169 T00560011 50001
KAPA 101353Z 17013KT 10SM BKN021 04/01 A3005 RMK AO2 SLP173 T00440006
KAPA 101253Z 16010KT 10SM BKN021 03/00 A3005 RMK AO2 SLP175 T00330000
KAPA 101153Z 19008KT 10SM BKN021 03/00 A3004 RMK AO2 SLP172 70011 T00330000 10056 20028 58003
KAPA 101053Z 16007KT 10SM FEW044 SCT110 03/00 A3004 RMK AO2 SLP174 T00330000
KAPA 100953Z 21008KT 10SM BKN035 OVC044 04/01 A3006 RMK AO2 SLP177 T00440006
KAPA 100853Z 18010KT 10SM OVC060 04/01 A3005 RMK AO2 SLP173 T00440006 58010
KAPA 100753Z 19003KT 10SM BKN060 OVC075 06/00 A3007 RMK AO2 SLP179 T00560000
KAPA 100653Z 21004KT 10SM BKN044 OVC055 05/01 A3008 RMK AO2 SLP181 T00500006 400780022
KAPA 100553Z 16009KT 10SM OVC060 05/M01 A3008 RMK AO2 SLP185 60002 T00501006 10067 20050 51001
KAPA 100453Z 13006KT 10SM SCT033 OVC065 06/M01 A3008 RMK AO2 SLP185 T00561006
KAPA 100353Z 15008KT 10SM SCT031 OVC065 06/M01 A3009 RMK AO2 SLP189 T00561006
KAPA 100253Z 15006KT 10SM BKN031 BKN047 OVC090 06/01 A3008 RMK AO2 SLP186 60002 T00610006 53005
KAPA 100153Z 16010KT 10SM BKN029 BKN041 OVC090 06/01 A3007 RMK AO2 RAE0056B15E25 SLP182 P0000 T00610006
KAPA 100053Z 16010KT 10SM -RA BKN025 OVC032 06/01 A3006 RMK AO2 SLP180 P0002 T00610011
KAPA 092353Z 14009KT 10SM -RA FEW010 BKN022 OVC036 06/01 A3006 RMK AO2 SLP180 P0005 60009 T00610011 10078 20056 53002
KAPA 092253Z 17013KT 10SM -RA FEW010 OVC029 07/01 A3004 RMK AO2 SLP172 P0001 T00670011
KAPA 092153Z 06006KT 7SM -RA FEW010 OVC038 06/02 A3004 RMK AO2 SLP172 P0002 T00610017
KAPA 092053Z VRB05KT 8SM -RA FEW010 BKN040 OVC050 06/01 A3005 RMK AO2 RAB21 SLP174 P0001 60001 T00610011 56010
KAPA 091953Z 02008KT 10SM OVC040 07/M01 A3006 RMK AO2 RAE38 SLP174 P0000 T00671006
KAPA 091853Z 08006KT 10SM -RA OVC038 07/M02 A3007 RMK AO2 RAB44 SLP173 P0000 T00671017
KAPA 091753Z VRB03KT 10SM FEW025 OVC048 06/M01 A3009 RMK AO2 SLP179 SHSN DSNT SW-NW T00611011 10061 20028 58009
KAPA 091653Z 00000KT 10SM FEW025 OVC047 06/M02 A3010 RMK AO2 SLP187 T00561017
KAPA 091553Z 24005KT 10SM FEW025 OVC047 04/M01 A3011 RMK AO2 SLP191 SHSN DSNT W T00441006
KAPA 091453Z 26006KT 10SM FEW006 OVC044 03/00 A3012 RMK AO2 SLP192 T00330000 51010
KAPA 091353Z 24009KT 10SM FEW008 OVC040 03/01 A3011 RMK AO2 SLP191 T00330011
KAPA 091253Z 30005KT 10SM FEW007 FEW015 OVC035 03/01 A3010 RMK AO2 SLP184 T00330011
KAPA 091153Z 32005KT 10SM FEW005 FEW014 OVC033 03/00 A3008 RMK AO2 SLP173 60015 70022 T00330000 10072 20022 51008
KAPA 091053Z 03004KT 10SM FEW017 OVC026 03/01 A3008 RMK AO2 RAE47 SLP161 P0002 T00280006
KAPA 091033Z 02006G17KT 10SM -RA FEW009 BKN016 OVC022 02/00 A3008 RMK AO2 P0002 T00220000